KHVN

Tweed-New Haven Airport

New Haven, Connecticut, USA
METAR KHVN 141331Z 19006KT 9SM BKN006 BKN050 OVC070 25/24 A2988 RMK AO2 T02500239
Observed Flight Rules
Aug-14 @ 13:31 UTC (11 minutes ago) Instrument Flight Rules
Wind Visibility Clouds
190° at 6 knots 9 miles
  • Broken at 600' AGL
  • Broken at 5,000' AGL
  • Overcast at 7,000' AGL
Temperatures Readings
Current 25°C / 77°F
Dewpoint 24°C / 75°F
Humidity 94%
Altimeter 29.88" Hg
Pressure 1012 hPa
Elevation 4
METAR KHVN 141331Z 19006KT 9SM BKN006 BKN050 OVC070 25/24 A2988 RMK AO2 T02500239
Observed Flight Rules
Aug-14 @ 13:31 UTC
(11 minutes ago)
IFR
Wind Visibility
190° at 6 knots 9 miles
Clouds
  • Broken at 600' AGL
  • Broken at 5,000' AGL
  • Overcast at 7,000' AGL
Temperature Dewpoint
25°C / 77°F 24°C / 75°F
Humidity Altimeter Pressure
94% 29.88" Hg 1012 hPa